Česky Dansk Deutsch English Español Suomi Français Magyar Italiano Nederlands norsk Polski Português svenska Türkçe

 

Het Weer

Pratica Di Mare (Italië)

06:55, 14 augustus 2016 (GMT)

NWNNE
WE
SWSSE
Home            
Pratica Di Mare Roma / Ciampino Roma Fiumicino Roma / Urbe Latina Guidonia Vigna Di Valle Civitavecchia Frosinone Rieti Ponza Viterbo Monte Terminillo Monte Argentario Gran Sasso Mountain Range Radicofani Grazzanise Perugia Grosseto Pescara Napoli / Capodichino Campobasso Capri

Om een weerknop op uw website of weblog te plaatsen, copieer onderstaande code en plak die in uw pagina. In het eerste vakje staat HTML-code, in het tweede vakje UBB-code.


Add to Google

Details

Wind speed:2 bf, 6 kn, 3.1 m/s, 6.9 miles/h, 11.1 km/h
Wind direction:SE, 130°
Visibility:Greater than 10000 m, 10 km, 32800 ft, 6.2 miles
Clouds:CAVOC
Temperature:25°C, 77°F
Gefühlte Temperatur:26°C, 79°F
Dew-point:17°C, 63°F
Atmospheric pressure:1021 hPa, 765.8 mmHg, 30.15 inHg, 1.008 atm
Relative humidity:61.2 %
METAR:LIRE 140655Z 13006KT CAVOK 25/17 Q1021 RMK SKC VIS MIN 9999 WIND THR13 13006KT WIND THR31 14005KT BLU

Snelkoppelingen

Actuele weersinformatie van de hele wereld. Voeg locaties toe met het plus (+) symbool. Deze snelkoppelingen kunnen worden toegevoegd aan Google.

Lid van de Technetium groep

website free tracking
StatCounter NetStat W3C Validator

01-10-2022 10:00:49
astro.technetium.be money.technetium.be phote.technetium.be tafeltennistafel.technetium.be www.ligfiets.net